createdAt,value
2022-10-04T00:02:17.913Z,2.00
2022-10-04T00:05:01.286Z,2.00
2022-10-04T00:07:42.828Z,2.40
2022-10-04T00:10:23.334Z,2.63
2022-10-04T00:13:01.813Z,2.20
2022-10-04T00:15:39.239Z,2.03
2022-10-04T00:18:29.300Z,2.07
2022-10-04T00:21:09.950Z,2.30
2022-10-04T00:23:47.721Z,2.00
2022-10-04T00:27:05.410Z,2.00
2022-10-04T00:29:43.518Z,2.00
2022-10-04T00:32:31.552Z,2.33
2022-10-04T00:35:44.078Z,2.20
2022-10-04T00:38:27.017Z,2.10
2022-10-04T00:41:08.904Z,2.10
2022-10-04T00:43:49.573Z,2.97
2022-10-04T00:46:28.363Z,2.37
2022-10-04T00:49:07.790Z,2.77
2022-10-04T00:51:46.185Z,2.30
2022-10-04T00:54:23.668Z,2.57
2022-10-04T00:57:00.825Z,2.47
2022-10-04T00:59:41.862Z,2.30
2022-10-04T01:02:22.517Z,2.40
2022-10-04T01:05:01.900Z,2.13
2022-10-04T01:07:42.259Z,2.40
2022-10-04T01:10:23.064Z,2.07
2022-10-04T01:13:05.890Z,2.40
2022-10-04T01:15:46.464Z,2.50
2022-10-04T01:18:34.352Z,2.40
2022-10-04T01:21:23.346Z,2.20
2022-10-04T01:24:22.776Z,2.37
2022-10-04T01:26:58.369Z,2.17
2022-10-04T01:29:33.533Z,2.40
2022-10-04T01:32:07.191Z,2.43
2022-10-04T01:34:42.513Z,2.87
2022-10-04T01:37:16.311Z,2.70
2022-10-04T01:39:52.406Z,2.53
2022-10-04T01:42:33.659Z,2.93
2022-10-04T01:45:16.537Z,2.40
2022-10-04T01:47:57.482Z,2.60
2022-10-04T01:50:39.096Z,2.73
2022-10-04T01:53:20.818Z,2.90
2022-10-04T01:56:04.658Z,2.70
2022-10-04T01:58:46.680Z,2.40
2022-10-04T02:01:27.882Z,2.73
2022-10-04T02:04:06.830Z,2.87
2022-10-04T02:06:44.404Z,2.80
2022-10-04T02:09:35.020Z,3.13
2022-10-04T02:12:10.406Z,3.00
2022-10-04T02:14:52.765Z,2.90
2022-10-04T02:17:30.654Z,2.87
2022-10-04T02:20:13.211Z,3.17
2022-10-04T02:22:50.901Z,3.10
2022-10-04T02:25:26.852Z,2.70
2022-10-04T02:28:02.117Z,2.83
2022-10-04T02:30:40.231Z,2.57
2022-10-04T02:33:12.875Z,3.63
2022-10-04T02:35:49.650Z,3.37
2022-10-04T02:38:30.423Z,2.87
2022-10-04T02:41:35.733Z,3.23
2022-10-04T02:44:19.263Z,2.83
2022-10-04T02:46:59.416Z,2.70
2022-10-04T02:49:38.672Z,3.30
2022-10-04T02:52:20.004Z,2.77
2022-10-04T02:55:02.567Z,2.80
2022-10-04T02:57:37.283Z,2.90
2022-10-04T03:00:21.301Z,3.00
2022-10-04T03:03:20.543Z,2.50
2022-10-04T03:06:05.793Z,2.87
2022-10-04T03:08:49.257Z,3.03
2022-10-04T03:11:28.821Z,2.83
2022-10-04T03:14:07.683Z,3.10
2022-10-04T03:16:46.530Z,2.40
2022-10-04T03:19:23.845Z,2.80
2022-10-04T03:22:03.789Z,3.00
2022-10-04T03:24:47.028Z,2.73
2022-10-04T03:27:27.231Z,2.73
2022-10-04T03:30:02.133Z,2.90
2022-10-04T03:32:38.725Z,2.90
2022-10-04T03:35:29.531Z,2.90
2022-10-04T03:38:10.016Z,2.80
2022-10-04T03:40:53.698Z,2.50
2022-10-04T03:43:31.740Z,2.60
2022-10-04T03:46:07.393Z,2.50
2022-10-04T03:48:47.888Z,2.67
2022-10-04T03:51:24.821Z,2.80
2022-10-04T03:54:01.691Z,2.47
2022-10-04T03:56:38.275Z,2.57
2022-10-04T03:59:19.399Z,2.60
2022-10-04T04:02:11.310Z,2.93
2022-10-04T04:04:58.252Z,2.90
2022-10-04T04:07:40.217Z,2.90
2022-10-04T04:10:24.827Z,2.63
2022-10-04T04:13:04.652Z,2.70
2022-10-04T04:15:40.604Z,2.50
2022-10-04T04:18:20.233Z,2.90
2022-10-04T04:20:59.081Z,3.17
2022-10-04T04:23:37.437Z,2.90
2022-10-04T04:26:24.800Z,3.00
2022-10-04T04:29:09.180Z,2.90
2022-10-04T04:31:52.409Z,3.63
2022-10-04T04:34:30.136Z,2.83
2022-10-04T04:37:06.605Z,2.67
2022-10-04T04:39:41.163Z,2.80
2022-10-04T04:42:19.248Z,2.37
2022-10-04T04:44:56.913Z,3.30
2022-10-04T04:47:34.376Z,3.20
2022-10-04T04:50:15.270Z,2.77
2022-10-04T04:52:56.235Z,3.03
2022-10-04T04:55:56.311Z,2.63
2022-10-04T04:58:35.471Z,2.93
2022-10-04T05:01:19.595Z,3.10
2022-10-04T05:04:04.958Z,2.60
2022-10-04T05:06:41.868Z,2.57
2022-10-04T05:09:29.291Z,3.33
2022-10-04T05:12:14.339Z,2.80
2022-10-04T05:14:50.761Z,2.63
2022-10-04T05:17:28.946Z,3.00
2022-10-04T05:20:04.439Z,2.60
2022-10-04T05:22:49.171Z,2.70
2022-10-04T05:25:33.621Z,2.80
2022-10-04T05:28:12.293Z,2.60
2022-10-04T05:30:59.449Z,2.53
2022-10-04T05:33:46.210Z,2.67
2022-10-04T05:36:52.010Z,2.97
2022-10-04T05:39:32.162Z,2.13
2022-10-04T05:42:21.201Z,2.77
2022-10-04T05:44:57.683Z,2.80
2022-10-04T05:47:32.472Z,2.90
2022-10-04T05:50:08.862Z,2.60
2022-10-04T05:52:45.142Z,2.47
2022-10-04T05:55:40.505Z,2.73
2022-10-04T05:58:41.113Z,2.57
2022-10-04T06:01:39.251Z,2.33
2022-10-04T06:05:01.952Z,2.20
2022-10-04T06:07:44.183Z,2.13
2022-10-04T06:10:58.765Z,2.20
2022-10-04T06:14:00.688Z,2.57
2022-10-04T06:16:56.486Z,2.57
2022-10-04T06:20:31.068Z,2.77
2022-10-04T06:23:14.988Z,2.80
2022-10-04T06:25:55.917Z,2.70
2022-10-04T06:28:35.716Z,2.57
2022-10-04T06:32:09.565Z,2.50
2022-10-04T06:35:25.243Z,2.50
2022-10-04T06:38:24.359Z,2.50
2022-10-04T06:41:35.357Z,2.30
2022-10-04T06:44:46.671Z,2.30
2022-10-04T06:47:49.016Z,2.43
2022-10-04T06:50:36.378Z,2.53
2022-10-04T06:53:25.736Z,2.40
2022-10-04T06:56:31.153Z,2.67
2022-10-04T06:59:47.057Z,2.60
2022-10-04T07:02:32.159Z,2.10
2022-10-04T07:05:21.853Z,2.87
2022-10-04T07:08:08.665Z,2.40
2022-10-04T07:10:55.749Z,2.47
2022-10-04T07:13:50.250Z,2.27
2022-10-04T07:16:38.538Z,2.30
2022-10-04T07:19:35.590Z,2.30
2022-10-04T07:22:21.660Z,2.67
2022-10-04T07:25:14.862Z,2.50
2022-10-04T07:28:16.564Z,2.10
2022-10-04T07:30:59.507Z,2.73
2022-10-04T07:33:45.959Z,2.43
2022-10-04T07:36:27.839Z,2.13
2022-10-04T07:39:11.602Z,2.43
2022-10-04T07:41:54.296Z,2.87
2022-10-04T07:44:39.517Z,2.57
2022-10-04T07:47:21.686Z,2.80
2022-10-04T07:49:56.360Z,2.77
2022-10-04T07:52:52.990Z,2.83
2022-10-04T07:55:33.527Z,2.30
2022-10-04T07:58:30.768Z,2.83
2022-10-04T08:01:13.185Z,2.63
2022-10-04T08:04:03.860Z,2.80
2022-10-04T08:06:56.514Z,2.47
2022-10-04T08:09:56.108Z,2.77
2022-10-04T08:12:47.868Z,2.60
2022-10-04T08:15:37.556Z,2.70
2022-10-04T08:18:30.280Z,2.33
2022-10-04T08:21:08.273Z,3.00
2022-10-04T08:24:17.564Z,2.80
2022-10-04T08:27:27.883Z,2.90
2022-10-04T08:30:12.086Z,3.20
2022-10-04T08:33:06.464Z,2.67
2022-10-04T08:35:44.103Z,2.93
2022-10-04T08:38:43.303Z,2.90
2022-10-04T08:42:04.929Z,2.97
2022-10-04T08:45:34.772Z,2.63
2022-10-04T08:49:06.993Z,2.10
2022-10-04T08:52:40.439Z,2.67
2022-10-04T08:55:48.255Z,2.63
2022-10-04T08:58:55.046Z,2.67
2022-10-04T09:01:56.403Z,2.57
2022-10-04T09:05:08.927Z,2.53
2022-10-04T09:08:46.113Z,2.40
2022-10-04T09:12:00.043Z,2.50
2022-10-04T09:15:11.224Z,2.80
2022-10-04T09:17:56.648Z,2.63
2022-10-04T09:20:55.378Z,2.77
2022-10-04T09:24:38.243Z,2.50
2022-10-04T09:27:54.027Z,2.30
2022-10-04T09:30:52.687Z,2.40
2022-10-04T09:33:59.615Z,2.33
2022-10-04T09:37:11.144Z,2.30
2022-10-04T09:40:37.056Z,2.30
2022-10-04T09:43:38.197Z,2.10
2022-10-04T09:46:32.704Z,2.20
2022-10-04T09:49:24.343Z,2.93
2022-10-04T09:52:24.678Z,2.73
2022-10-04T09:55:35.740Z,2.27
2022-10-04T09:58:53.399Z,2.30
2022-10-04T10:01:46.004Z,2.17
2022-10-04T10:04:51.930Z,2.00
2022-10-04T10:07:46.740Z,2.10
2022-10-04T10:10:52.866Z,2.43
2022-10-04T10:14:00.621Z,2.20
2022-10-04T10:16:51.428Z,2.00
2022-10-04T10:20:27.212Z,1.93
2022-10-04T10:23:44.270Z,2.20
2022-10-04T10:26:52.494Z,2.17
2022-10-04T10:30:11.289Z,1.80
2022-10-04T10:33:20.544Z,1.73
2022-10-04T10:36:37.236Z,2.10
2022-10-04T10:39:48.508Z,2.10
2022-10-04T10:43:03.501Z,1.87
2022-10-04T10:46:03.335Z,2.00
2022-10-04T10:49:02.467Z,1.70
2022-10-04T10:52:29.574Z,1.60
2022-10-04T10:55:36.039Z,1.80
2022-10-04T10:59:02.014Z,1.50
2022-10-04T11:02:15.376Z,1.90
2022-10-04T11:05:04.703Z,1.70
2022-10-04T11:07:55.242Z,1.97
2022-10-04T11:11:23.005Z,1.90
2022-10-04T11:14:32.656Z,1.63
2022-10-04T11:17:57.293Z,1.80
2022-10-04T11:21:14.006Z,1.80
2022-10-04T11:24:34.701Z,1.80
2022-10-04T11:27:48.747Z,1.97
2022-10-04T11:30:29.875Z,1.43
2022-10-04T11:33:59.494Z,1.53
2022-10-04T11:36:54.020Z,1.80
2022-10-04T11:40:10.689Z,1.67
2022-10-04T11:43:11.373Z,1.87
2022-10-04T11:46:17.616Z,1.50
2022-10-04T11:49:14.344Z,1.67
2022-10-04T11:52:42.004Z,1.53
2022-10-04T11:55:54.153Z,1.50
2022-10-04T11:58:42.049Z,1.60
2022-10-04T12:01:50.746Z,1.23
2022-10-04T12:05:13.711Z,1.60
2022-10-04T12:07:58.988Z,1.83
2022-10-04T12:11:12.177Z,1.40
2022-10-04T12:14:11.337Z,1.50
2022-10-04T12:17:18.643Z,1.67
2022-10-04T12:20:56.935Z,1.40
2022-10-04T12:24:03.432Z,1.30
2022-10-04T12:27:26.008Z,1.23
2022-10-04T12:30:23.936Z,1.50
2022-10-04T12:33:14.845Z,1.50
2022-10-04T12:36:04.002Z,1.43
2022-10-04T12:39:09.579Z,1.33
2022-10-04T12:42:00.228Z,1.23
2022-10-04T12:45:05.693Z,1.60
2022-10-04T12:47:58.835Z,1.40
2022-10-04T12:50:54.718Z,1.50
2022-10-04T12:53:50.316Z,1.30
2022-10-04T12:56:47.692Z,1.57
2022-10-04T12:59:55.024Z,1.90
2022-10-04T13:02:59.849Z,1.50
2022-10-04T13:05:50.391Z,2.07
2022-10-04T13:08:57.621Z,1.63
2022-10-04T13:11:59.251Z,1.40
2022-10-04T13:15:06.295Z,1.30
2022-10-04T13:17:59.079Z,1.30
2022-10-04T13:20:55.956Z,1.70
2022-10-04T13:23:55.514Z,1.50
2022-10-04T13:26:48.940Z,1.33
2022-10-04T13:29:32.724Z,1.37
2022-10-04T13:32:17.560Z,1.37
2022-10-04T13:35:04.903Z,1.33
2022-10-04T13:37:55.836Z,1.37
2022-10-04T13:40:55.979Z,1.20
2022-10-04T13:44:11.920Z,1.63
2022-10-04T13:47:07.811Z,1.50
2022-10-04T13:50:05.654Z,1.40
2022-10-04T13:53:13.415Z,1.53
2022-10-04T13:56:18.600Z,1.60
2022-10-04T13:59:04.621Z,1.40
2022-10-04T14:02:41.091Z,1.60
2022-10-04T14:06:07.270Z,1.27
2022-10-04T14:09:18.419Z,1.57
2022-10-04T14:12:54.779Z,1.40
2022-10-04T14:16:34.576Z,1.40
2022-10-04T14:19:49.490Z,1.47
2022-10-04T14:23:20.374Z,1.53
2022-10-04T14:26:51.004Z,1.27
2022-10-04T14:30:12.510Z,1.40
2022-10-04T14:33:17.498Z,1.70
2022-10-04T14:36:11.196Z,1.57
2022-10-04T14:39:18.322Z,1.33
2022-10-04T14:42:46.505Z,1.73
2022-10-04T14:45:37.878Z,1.40
2022-10-04T14:48:54.777Z,1.40
2022-10-04T14:51:50.089Z,1.60
2022-10-04T14:54:50.075Z,1.73
2022-10-04T14:57:52.806Z,1.57
2022-10-04T15:00:35.191Z,1.67
2022-10-04T15:03:32.995Z,1.60
2022-10-04T15:06:42.761Z,1.90
2022-10-04T15:09:53.807Z,1.87
2022-10-04T15:13:11.031Z,1.73
2022-10-04T15:16:10.110Z,1.60
2022-10-04T15:18:55.995Z,1.90
2022-10-04T15:21:53.842Z,1.80
2022-10-04T15:24:44.547Z,1.70
2022-10-04T15:27:58.580Z,1.67
2022-10-04T15:30:51.260Z,1.87
2022-10-04T15:33:40.091Z,2.03
2022-10-04T15:36:50.751Z,2.03
2022-10-04T15:40:15.498Z,1.73
2022-10-04T15:43:43.804Z,1.90
2022-10-04T15:46:39.728Z,1.93
2022-10-04T15:49:52.649Z,1.60
2022-10-04T15:53:23.429Z,1.80
2022-10-04T15:56:14.743Z,1.87
2022-10-04T15:59:36.436Z,2.00
2022-10-04T16:02:59.594Z,1.70
2022-10-04T16:05:40.126Z,1.77
2022-10-04T16:08:43.190Z,1.53
2022-10-04T16:11:40.100Z,1.87
2022-10-04T16:14:52.499Z,1.87
2022-10-04T16:17:58.805Z,1.97
2022-10-04T16:20:56.295Z,2.30
2022-10-04T16:23:36.420Z,1.93
2022-10-04T16:26:15.424Z,1.80
2022-10-04T16:29:22.196Z,2.03
2022-10-04T16:32:04.199Z,2.23
2022-10-04T16:34:52.660Z,1.97
2022-10-04T16:37:43.163Z,1.80
2022-10-04T16:40:36.507Z,2.50
2022-10-04T16:43:24.807Z,2.10
2022-10-04T16:46:24.125Z,2.30
2022-10-04T16:49:04.193Z,2.13
2022-10-04T16:52:10.354Z,2.70
2022-10-04T16:55:11.377Z,3.00
2022-10-04T16:57:45.975Z,5.23
2022-10-04T17:00:38.173Z,5.23
2022-10-04T17:03:25.259Z,5.87
2022-10-04T17:06:15.302Z,6.60
2022-10-04T17:09:03.820Z,7.30
2022-10-04T17:11:59.449Z,8.03
2022-10-04T17:15:27.913Z,8.17
2022-10-04T17:18:14.425Z,7.13
2022-10-04T17:21:00.396Z,5.90
2022-10-04T17:24:10.882Z,4.83
2022-10-04T17:27:05.962Z,3.80
2022-10-04T17:30:00.125Z,3.60
2022-10-04T17:32:52.164Z,3.10
2022-10-04T17:36:00.203Z,3.10
2022-10-04T17:38:47.624Z,2.60
2022-10-04T17:41:36.643Z,2.80
2022-10-04T17:44:45.396Z,2.60
2022-10-04T17:47:27.146Z,2.20
2022-10-04T17:50:32.231Z,2.50
2022-10-04T17:53:33.556Z,2.40
2022-10-04T17:56:13.363Z,2.60
2022-10-04T17:58:54.913Z,2.80
2022-10-04T18:01:35.294Z,2.80
2022-10-04T18:04:18.337Z,2.77
2022-10-04T18:06:58.157Z,2.63
2022-10-04T18:09:41.796Z,2.50
2022-10-04T18:12:29.307Z,2.70
2022-10-04T18:15:11.905Z,2.40
2022-10-04T18:17:50.145Z,2.73
2022-10-04T18:20:32.530Z,2.50
2022-10-04T18:23:20.104Z,2.90
2022-10-04T18:26:00.639Z,2.60
2022-10-04T18:28:35.582Z,3.03
2022-10-04T18:31:30.591Z,2.70
2022-10-04T18:34:28.097Z,2.57
2022-10-04T18:37:21.231Z,2.83
2022-10-04T18:39:55.940Z,2.73
2022-10-04T18:42:37.089Z,2.70
2022-10-04T18:45:22.596Z,2.57
